DLH42R EDDM-GOBD
Flight info
| Callsign | DLH42R |
|---|---|
| Flight time | N/A |
| Altitude | 33000 |
| Route | TURBU6E/08R TURBU Y107 TOBSO DCT BAKOR DCT GAVRA DCT KONUT DCT VELEX DCT ADAMI DCT ABDAB UA743 TUC UM725 TBS UG864 TIO UM725 TAMUL UR722 UBATA UM974 KITNI KITNI1D |
| Aircraft | A346/H-SDE2E3FGHIJ3J4J5M1RWXY/LB1D1 |
Departure
| Time | N/A |
|---|---|
| Airport | Munich Airport (EDDM) |
Arrival
| Time | 2026-04-29 15:45 |
|---|---|
| Airport | Blaise Diagne International Airport (GOBD) |
| Time | Latitude | Longitude | Altitude | Speed | Heading |
|---|---|---|---|---|---|
| 2026-04-29 07:59 | 47.66191 | 11.94399 | 19082 ft | 430 kts | 183° |
| 2026-04-29 08:00 | 47.63195 | 11.94349 | 19603 ft | 431 kts | 183° |
| 2026-04-29 08:00 | 47.60185 | 11.94298 | 20114 ft | 433 kts | 184° |
| 2026-04-29 08:00 | 47.57166 | 11.94246 | 20608 ft | 435 kts | 184° |
| 2026-04-29 08:00 | 47.54132 | 11.94194 | 21057 ft | 437 kts | 184° |
| 2026-04-29 08:01 | 47.51079 | 11.94141 | 21525 ft | 439 kts | 184° |
| 2026-04-29 08:01 | 47.48017 | 11.94087 | 21980 ft | 442 kts | 185° |
| 2026-04-29 08:01 | 47.44941 | 11.94001 | 22435 ft | 443 kts | 186° |
| 2026-04-29 08:01 | 47.42903 | 11.93829 | 22720 ft | 443 kts | 189° |
| 2026-04-29 08:02 | 47.39842 | 11.93352 | 23150 ft | 442 kts | 192° |
| 2026-04-29 08:02 | 47.36789 | 11.92731 | 23567 ft | 444 kts | 192° |
| 2026-04-29 08:02 | 47.33715 | 11.92114 | 23971 ft | 447 kts | 192° |
| 2026-04-29 08:02 | 47.30626 | 11.91499 | 24368 ft | 449 kts | 193° |
| 2026-04-29 08:03 | 47.27523 | 11.90879 | 24733 ft | 451 kts | 193° |
| 2026-04-29 08:03 | 47.24402 | 11.90255 | 25037 ft | 454 kts | 193° |
| 2026-04-29 08:03 | 47.21259 | 11.89629 | 25350 ft | 458 kts | 193° |
| 2026-04-29 08:03 | 47.18095 | 11.88999 | 25662 ft | 460 kts | 193° |
| 2026-04-29 08:04 | 47.14909 | 11.88370 | 25984 ft | 463 kts | 193° |
| 2026-04-29 08:04 | 47.11705 | 11.87736 | 26286 ft | 466 kts | 193° |
| 2026-04-29 08:04 | 47.08477 | 11.87098 | 26605 ft | 469 kts | 193° |
| 2026-04-29 08:04 | 47.05233 | 11.86458 | 26885 ft | 472 kts | 193° |
| 2026-04-29 08:05 | 47.01977 | 11.85759 | 27202 ft | 473 kts | 195° |
| 2026-04-29 08:05 | 46.98754 | 11.84829 | 27499 ft | 473 kts | 198° |
| 2026-04-29 08:05 | 46.95536 | 11.83791 | 27827 ft | 475 kts | 198° |
| 2026-04-29 08:05 | 46.92290 | 11.82757 | 28127 ft | 478 kts | 197° |
| 2026-04-29 08:06 | 46.89029 | 11.81723 | 28390 ft | 481 kts | 197° |
| 2026-04-29 08:06 | 46.85749 | 11.80685 | 28697 ft | 483 kts | 197° |
| 2026-04-29 08:06 | 46.82468 | 11.79649 | 29050 ft | 482 kts | 198° |
| 2026-04-29 08:06 | 46.79190 | 11.78616 | 29465 ft | 481 kts | 198° |
| 2026-04-29 08:07 | 46.75919 | 11.77585 | 29882 ft | 480 kts | 198° |
| 2026-04-29 08:07 | 46.72657 | 11.76557 | 30255 ft | 480 kts | 198° |
| 2026-04-29 08:07 | 46.69398 | 11.75529 | 30613 ft | 479 kts | 198° |
| 2026-04-29 08:07 | 46.66130 | 11.74548 | 30961 ft | 480 kts | 196° |
| 2026-04-29 08:08 | 46.62825 | 11.73794 | 31321 ft | 481 kts | 193° |
| 2026-04-29 08:08 | 46.59488 | 11.73302 | 31661 ft | 483 kts | 189° |
| 2026-04-29 08:08 | 46.56122 | 11.73073 | 31989 ft | 486 kts | 186° |
| 2026-04-29 08:08 | 46.52733 | 11.73112 | 32258 ft | 489 kts | 184° |
| 2026-04-29 08:09 | 46.49329 | 11.73246 | 32501 ft | 490 kts | 184° |
| 2026-04-29 08:09 | 46.45915 | 11.73373 | 32762 ft | 491 kts | 184° |
| 2026-04-29 08:09 | 46.42500 | 11.73495 | 32985 ft | 492 kts | 184° |
| 2026-04-29 08:09 | 46.39078 | 11.73616 | 33185 ft | 493 kts | 184° |
| 2026-04-29 08:10 | 46.32222 | 11.73858 | 33191 ft | 493 kts | 184° |
| 2026-04-29 08:10 | 46.25368 | 11.74099 | 33184 ft | 493 kts | 184° |
| 2026-04-29 08:11 | 46.18513 | 11.74341 | 33186 ft | 493 kts | 184° |
| 2026-04-29 08:11 | 46.11664 | 11.74581 | 33178 ft | 492 kts | 184° |
| 2026-04-29 08:12 | 46.04816 | 11.74821 | 33170 ft | 492 kts | 184° |
| 2026-04-29 08:12 | 45.97976 | 11.75059 | 33163 ft | 492 kts | 184° |
| 2026-04-29 08:13 | 45.91141 | 11.75296 | 33144 ft | 491 kts | 184° |
| 2026-04-29 08:13 | 45.84348 | 11.75532 | 33139 ft | 492 kts | 184° |
| 2026-04-29 08:14 | 45.77505 | 11.75770 | 33131 ft | 492 kts | 184° |
| 2026-04-29 08:14 | 45.70669 | 11.76006 | 33126 ft | 491 kts | 184° |
| 2026-04-29 08:15 | 45.63839 | 11.76240 | 33112 ft | 491 kts | 184° |
| 2026-04-29 08:15 | 45.57008 | 11.76475 | 33101 ft | 491 kts | 184° |
| 2026-04-29 08:16 | 45.50180 | 11.76709 | 33093 ft | 491 kts | 184° |
| 2026-04-29 08:16 | 45.43356 | 11.76943 | 33090 ft | 490 kts | 184° |
| 2026-04-29 08:17 | 45.36541 | 11.77175 | 33104 ft | 490 kts | 184° |
| 2026-04-29 08:17 | 45.29729 | 11.77407 | 33106 ft | 489 kts | 184° |
| 2026-04-29 08:18 | 45.22924 | 11.77638 | 33102 ft | 489 kts | 184° |
| 2026-04-29 08:18 | 45.16126 | 11.77868 | 33105 ft | 488 kts | 183° |
| 2026-04-29 08:19 | 45.09336 | 11.78099 | 33099 ft | 488 kts | 183° |
| 2026-04-29 08:19 | 45.02554 | 11.78328 | 33098 ft | 487 kts | 183° |
| 2026-04-29 08:20 | 44.95775 | 11.78555 | 33090 ft | 487 kts | 183° |
| 2026-04-29 08:20 | 44.89004 | 11.78783 | 33088 ft | 487 kts | 183° |
| 2026-04-29 08:21 | 44.82240 | 11.79010 | 33081 ft | 486 kts | 183° |
| 2026-04-29 08:21 | 44.75480 | 11.79236 | 33079 ft | 486 kts | 183° |
| 2026-04-29 08:22 | 44.68724 | 11.79462 | 33078 ft | 485 kts | 183° |
| 2026-04-29 08:22 | 44.61972 | 11.79686 | 33084 ft | 485 kts | 183° |
| 2026-04-29 08:23 | 44.55228 | 11.79911 | 33087 ft | 485 kts | 183° |
| 2026-04-29 08:23 | 44.48484 | 11.80133 | 33081 ft | 485 kts | 183° |
| 2026-04-29 08:24 | 44.41742 | 11.80357 | 33078 ft | 484 kts | 183° |
| 2026-04-29 08:24 | 44.35012 | 11.80580 | 33071 ft | 484 kts | 183° |
| 2026-04-29 08:25 | 44.28274 | 11.80800 | 33077 ft | 484 kts | 182° |
| 2026-04-29 08:25 | 44.21542 | 11.81022 | 33077 ft | 484 kts | 182° |
| 2026-04-29 08:26 | 44.14818 | 11.81243 | 33074 ft | 484 kts | 182° |
| 2026-04-29 08:26 | 44.08088 | 11.81463 | 33078 ft | 484 kts | 182° |
| 2026-04-29 08:27 | 44.01359 | 11.81683 | 33077 ft | 484 kts | 182° |
| 2026-04-29 08:27 | 43.94640 | 11.81903 | 33080 ft | 483 kts | 182° |
| 2026-04-29 08:28 | 43.87917 | 11.82123 | 33076 ft | 483 kts | 182° |
| 2026-04-29 08:28 | 43.81198 | 11.82342 | 33080 ft | 483 kts | 182° |
| 2026-04-29 08:29 | 43.74465 | 11.82638 | 33084 ft | 484 kts | 181° |
| 2026-04-29 08:29 | 43.67778 | 11.83190 | 33087 ft | 487 kts | 180° |
| 2026-04-29 08:30 | 43.64345 | 11.83481 | 33362 ft | 486 kts | 180° |
| 2026-04-29 08:30 | 43.57642 | 11.84042 | 34211 ft | 480 kts | 180° |
| 2026-04-29 08:30 | 43.54312 | 11.84314 | 34537 ft | 478 kts | 181° |
| 2026-04-29 08:31 | 43.51037 | 11.84576 | 34799 ft | 478 kts | 180° |
| 2026-04-29 08:31 | 43.47715 | 11.84841 | 35036 ft | 478 kts | 180° |
| 2026-04-29 08:31 | 43.44390 | 11.85105 | 35076 ft | 479 kts | 180° |
| 2026-04-29 08:32 | 43.37745 | 11.85633 | 35084 ft | 478 kts | 180° |
| 2026-04-29 08:32 | 43.31100 | 11.86159 | 35078 ft | 478 kts | 180° |
| 2026-04-29 08:33 | 43.24456 | 11.86685 | 35076 ft | 478 kts | 180° |
| 2026-04-29 08:33 | 43.17811 | 11.87209 | 35082 ft | 478 kts | 180° |
| 2026-04-29 08:34 | 43.11148 | 11.87735 | 35082 ft | 478 kts | 180° |
| 2026-04-29 08:34 | 43.04506 | 11.88257 | 35071 ft | 478 kts | 180° |
| 2026-04-29 08:35 | 42.97863 | 11.88778 | 35078 ft | 478 kts | 180° |
| 2026-04-29 08:35 | 42.91223 | 11.89297 | 35082 ft | 478 kts | 179° |
| 2026-04-29 08:36 | 42.84580 | 11.89818 | 35079 ft | 478 kts | 179° |
| 2026-04-29 08:36 | 42.77940 | 11.90335 | 35077 ft | 478 kts | 179° |
| 2026-04-29 08:37 | 42.71299 | 11.90852 | 35072 ft | 478 kts | 179° |
| 2026-04-29 08:37 | 42.64653 | 11.91367 | 35074 ft | 478 kts | 179° |
| 2026-04-29 08:38 | 42.58013 | 11.91882 | 35080 ft | 478 kts | 179° |
| 2026-04-29 08:38 | 42.51379 | 11.92395 | 35083 ft | 478 kts | 179° |
| 2026-04-29 08:39 | 42.44736 | 11.92907 | 35081 ft | 478 kts | 179° |
| 2026-04-29 08:39 | 42.38104 | 11.93419 | 35083 ft | 478 kts | 179° |
| 2026-04-29 08:40 | 42.31464 | 11.93928 | 35076 ft | 478 kts | 179° |
| 2026-04-29 08:40 | 42.24825 | 11.94438 | 35075 ft | 478 kts | 179° |
| 2026-04-29 08:41 | 42.18187 | 11.94945 | 35071 ft | 478 kts | 179° |
| 2026-04-29 08:41 | 42.11548 | 11.95452 | 35080 ft | 478 kts | 179° |
| 2026-04-29 08:42 | 42.04920 | 11.95958 | 35080 ft | 478 kts | 179° |
| 2026-04-29 08:42 | 41.98325 | 11.96459 | 35084 ft | 478 kts | 179° |
| 2026-04-29 08:43 | 41.91686 | 11.96963 | 35073 ft | 478 kts | 179° |
| 2026-04-29 08:43 | 41.85052 | 11.97465 | 35076 ft | 478 kts | 179° |
| 2026-04-29 08:44 | 41.78418 | 11.97967 | 35084 ft | 478 kts | 179° |
| 2026-04-29 08:44 | 41.71770 | 11.98469 | 35074 ft | 478 kts | 179° |
| 2026-04-29 08:45 | 41.65135 | 11.98968 | 35085 ft | 478 kts | 179° |
| 2026-04-29 08:45 | 41.58495 | 11.99466 | 35081 ft | 478 kts | 179° |
| 2026-04-29 08:46 | 41.51858 | 11.99967 | 35083 ft | 478 kts | 179° |
| 2026-04-29 08:46 | 41.45234 | 12.00465 | 35078 ft | 478 kts | 179° |
| 2026-04-29 08:47 | 41.38590 | 12.00925 | 35081 ft | 477 kts | 180° |
| 2026-04-29 08:47 | 41.33080 | 12.00783 | 35078 ft | 476 kts | 186° |
| 2026-04-29 08:48 | 41.26523 | 11.99718 | 35072 ft | 474 kts | 192° |
| 2026-04-29 08:48 | 41.20121 | 11.97702 | 35076 ft | 472 kts | 198° |
| 2026-04-29 08:49 | 41.13826 | 11.95019 | 35077 ft | 472 kts | 199° |
| 2026-04-29 08:49 | 41.07580 | 11.92352 | 35073 ft | 471 kts | 199° |
| 2026-04-29 08:50 | 41.01338 | 11.89693 | 35067 ft | 471 kts | 199° |
| 2026-04-29 08:50 | 40.95135 | 11.87056 | 35068 ft | 471 kts | 199° |
| 2026-04-29 08:51 | 40.88845 | 11.84388 | 35072 ft | 471 kts | 199° |
| 2026-04-29 08:51 | 40.82637 | 11.81759 | 35069 ft | 472 kts | 199° |
| 2026-04-29 08:52 | 40.76391 | 11.79120 | 35071 ft | 471 kts | 199° |
| 2026-04-29 08:52 | 40.70143 | 11.76483 | 35068 ft | 471 kts | 199° |
| 2026-04-29 08:53 | 40.63896 | 11.73854 | 35069 ft | 471 kts | 199° |
| 2026-04-29 08:53 | 40.57646 | 11.71230 | 35065 ft | 471 kts | 199° |
| 2026-04-29 08:54 | 40.51399 | 11.68609 | 35058 ft | 471 kts | 199° |
| 2026-04-29 08:54 | 40.45148 | 11.65995 | 35052 ft | 471 kts | 199° |
| 2026-04-29 08:55 | 40.38897 | 11.63385 | 35051 ft | 471 kts | 199° |
| 2026-04-29 08:55 | 40.32650 | 11.60782 | 35051 ft | 471 kts | 199° |
| 2026-04-29 08:56 | 40.26401 | 11.58182 | 35051 ft | 471 kts | 199° |
| 2026-04-29 08:56 | 40.20153 | 11.55589 | 35043 ft | 471 kts | 199° |
| 2026-04-29 08:57 | 40.13906 | 11.53001 | 35042 ft | 471 kts | 199° |
| 2026-04-29 08:57 | 40.07655 | 11.50418 | 35043 ft | 471 kts | 198° |
| 2026-04-29 08:58 | 40.01405 | 11.47840 | 35041 ft | 471 kts | 198° |
| 2026-04-29 08:58 | 39.95158 | 11.45269 | 35042 ft | 471 kts | 199° |
| 2026-04-29 08:59 | 39.88914 | 11.42693 | 35042 ft | 471 kts | 199° |
| 2026-04-29 08:59 | 39.82666 | 11.40124 | 35042 ft | 471 kts | 199° |
| 2026-04-29 09:00 | 39.76418 | 11.37563 | 35042 ft | 471 kts | 199° |
| 2026-04-29 09:00 | 39.70171 | 11.35007 | 35039 ft | 471 kts | 199° |
| 2026-04-29 09:01 | 39.63923 | 11.32456 | 35033 ft | 471 kts | 199° |
| 2026-04-29 09:01 | 39.57678 | 11.29912 | 35031 ft | 470 kts | 199° |
| 2026-04-29 09:02 | 39.51429 | 11.27370 | 35031 ft | 470 kts | 199° |
| 2026-04-29 09:02 | 39.45173 | 11.24833 | 35031 ft | 472 kts | 199° |
| 2026-04-29 09:03 | 39.38902 | 11.22291 | 35032 ft | 472 kts | 199° |
| 2026-04-29 09:03 | 39.32631 | 11.19755 | 35028 ft | 472 kts | 199° |
| 2026-04-29 09:04 | 39.26365 | 11.17226 | 35016 ft | 472 kts | 200° |
| 2026-04-29 09:04 | 39.20098 | 11.14700 | 35031 ft | 471 kts | 200° |
| 2026-04-29 09:05 | 39.13840 | 11.12185 | 35041 ft | 471 kts | 200° |
| 2026-04-29 09:05 | 39.07585 | 11.09674 | 35041 ft | 471 kts | 200° |
| 2026-04-29 09:06 | 39.01330 | 11.07167 | 35041 ft | 471 kts | 200° |
| 2026-04-29 09:06 | 38.95129 | 11.04688 | 35033 ft | 470 kts | 200° |
| 2026-04-29 09:07 | 38.88881 | 11.02195 | 35027 ft | 470 kts | 200° |
| 2026-04-29 09:07 | 38.82639 | 10.99710 | 35026 ft | 470 kts | 200° |
| 2026-04-29 09:08 | 38.76396 | 10.97229 | 35021 ft | 470 kts | 200° |
| 2026-04-29 09:08 | 38.70153 | 10.94752 | 35018 ft | 469 kts | 200° |
| 2026-04-29 09:09 | 38.63914 | 10.92271 | 35016 ft | 469 kts | 200° |
| 2026-04-29 09:09 | 38.57680 | 10.89797 | 35012 ft | 469 kts | 200° |
| 2026-04-29 09:10 | 38.51444 | 10.87330 | 35012 ft | 469 kts | 200° |
| 2026-04-29 09:10 | 38.45214 | 10.84869 | 35013 ft | 468 kts | 200° |
| 2026-04-29 09:11 | 38.38989 | 10.82416 | 35011 ft | 468 kts | 200° |
| 2026-04-29 09:11 | 38.32766 | 10.79969 | 35012 ft | 468 kts | 201° |
| 2026-04-29 09:12 | 38.26540 | 10.77524 | 35018 ft | 468 kts | 201° |
| 2026-04-29 09:12 | 38.20316 | 10.75085 | 35008 ft | 468 kts | 201° |
| 2026-04-29 09:13 | 38.14092 | 10.72650 | 35006 ft | 468 kts | 201° |
| 2026-04-29 09:13 | 38.07873 | 10.70222 | 35020 ft | 468 kts | 201° |
| 2026-04-29 09:14 | 38.01654 | 10.67798 | 35013 ft | 467 kts | 201° |
| 2026-04-29 09:14 | 37.95444 | 10.65390 | 35016 ft | 467 kts | 201° |
| 2026-04-29 09:15 | 37.89246 | 10.62984 | 35014 ft | 465 kts | 201° |
| 2026-04-29 09:15 | 37.83058 | 10.60573 | 35016 ft | 465 kts | 201° |
| 2026-04-29 09:16 | 37.76912 | 10.58185 | 35015 ft | 465 kts | 201° |
| 2026-04-29 09:16 | 37.70680 | 10.55772 | 35016 ft | 465 kts | 201° |
| 2026-04-29 09:17 | 37.64528 | 10.53395 | 35018 ft | 465 kts | 201° |
| 2026-04-29 09:17 | 37.58339 | 10.51010 | 35022 ft | 465 kts | 201° |
| 2026-04-29 09:18 | 37.52150 | 10.48627 | 35021 ft | 465 kts | 201° |
| 2026-04-29 09:18 | 37.45961 | 10.46250 | 35021 ft | 465 kts | 201° |
| 2026-04-29 09:19 | 37.39778 | 10.43879 | 35025 ft | 464 kts | 201° |
| 2026-04-29 09:19 | 37.33605 | 10.41516 | 35022 ft | 463 kts | 202° |
| 2026-04-29 09:20 | 37.27436 | 10.39159 | 35026 ft | 463 kts | 202° |
| 2026-04-29 09:20 | 37.21273 | 10.36806 | 35021 ft | 463 kts | 202° |
| 2026-04-29 09:21 | 37.15115 | 10.34462 | 35018 ft | 462 kts | 202° |
| 2026-04-29 09:21 | 37.08961 | 10.32124 | 35003 ft | 462 kts | 202° |
| 2026-04-29 09:22 | 37.02819 | 10.29794 | 35001 ft | 461 kts | 202° |
| 2026-04-29 09:22 | 36.96689 | 10.27471 | 35006 ft | 460 kts | 202° |
| 2026-04-29 09:23 | 36.90757 | 10.24654 | 35000 ft | 452 kts | 212° |
| 2026-04-29 09:23 | 36.85392 | 10.20708 | 35000 ft | 444 kts | 221° |
| 2026-04-29 09:24 | 36.80702 | 10.15795 | 35003 ft | 437 kts | 230° |
| 2026-04-29 09:24 | 36.76709 | 10.10127 | 35002 ft | 433 kts | 234° |
| 2026-04-29 09:25 | 36.72895 | 10.04312 | 34995 ft | 432 kts | 235° |
| 2026-04-29 09:25 | 36.69095 | 9.98511 | 35005 ft | 431 kts | 235° |
| 2026-04-29 09:26 | 36.65301 | 9.92721 | 34993 ft | 430 kts | 235° |
| 2026-04-29 09:26 | 36.61511 | 9.86951 | 35001 ft | 430 kts | 235° |
| 2026-04-29 09:27 | 36.57722 | 9.81192 | 35009 ft | 429 kts | 235° |
| 2026-04-29 09:27 | 36.53934 | 9.75442 | 34999 ft | 429 kts | 235° |
| 2026-04-29 09:28 | 36.50145 | 9.69701 | 35000 ft | 429 kts | 235° |
| 2026-04-29 09:28 | 36.46357 | 9.63972 | 34984 ft | 428 kts | 235° |
| 2026-04-29 09:29 | 36.42595 | 9.58291 | 35003 ft | 428 kts | 235° |
| 2026-04-29 09:29 | 36.36907 | 9.49718 | 34986 ft | 428 kts | 234° |
| 2026-04-29 09:30 | 36.33113 | 9.44013 | 35001 ft | 429 kts | 234° |
| 2026-04-29 09:30 | 36.29310 | 9.38304 | 34990 ft | 429 kts | 234° |
| 2026-04-29 09:31 | 36.25502 | 9.32597 | 34989 ft | 429 kts | 234° |
| 2026-04-29 09:31 | 36.21695 | 9.26904 | 34985 ft | 429 kts | 234° |
| 2026-04-29 09:32 | 36.17881 | 9.21208 | 34987 ft | 429 kts | 234° |
| 2026-04-29 09:32 | 36.14680 | 9.16435 | 34985 ft | 429 kts | 234° |
| 2026-04-29 09:33 | 36.10860 | 9.10751 | 34987 ft | 429 kts | 234° |
| 2026-04-29 09:33 | 36.07032 | 9.05065 | 34985 ft | 430 kts | 234° |
| 2026-04-29 09:34 | 36.03253 | 8.99339 | 35003 ft | 428 kts | 236° |
| 2026-04-29 09:34 | 35.99654 | 8.93472 | 34988 ft | 429 kts | 236° |
| 2026-04-29 09:35 | 35.96053 | 8.87638 | 34989 ft | 425 kts | 236° |
| 2026-04-29 09:35 | 35.92468 | 8.81828 | 34995 ft | 425 kts | 236° |
| 2026-04-29 09:36 | 35.88877 | 8.76016 | 34997 ft | 426 kts | 236° |
| 2026-04-29 09:36 | 35.85304 | 8.70245 | 34986 ft | 426 kts | 236° |
| 2026-04-29 09:37 | 35.81707 | 8.64442 | 34986 ft | 425 kts | 236° |
| 2026-04-29 09:37 | 35.78107 | 8.58648 | 34999 ft | 425 kts | 236° |
| 2026-04-29 09:38 | 35.74507 | 8.52860 | 35001 ft | 425 kts | 236° |
| 2026-04-29 09:38 | 35.70904 | 8.47077 | 35003 ft | 425 kts | 236° |
| 2026-04-29 09:39 | 35.67300 | 8.41307 | 35013 ft | 425 kts | 236° |
| 2026-04-29 09:39 | 35.63693 | 8.35540 | 35006 ft | 425 kts | 236° |
| 2026-04-29 09:40 | 35.60084 | 8.29778 | 35016 ft | 425 kts | 236° |
| 2026-04-29 09:40 | 35.56472 | 8.24022 | 35018 ft | 425 kts | 236° |
| 2026-04-29 09:41 | 35.52853 | 8.18264 | 35022 ft | 426 kts | 236° |
| 2026-04-29 09:41 | 35.49226 | 8.12507 | 35020 ft | 426 kts | 236° |
| 2026-04-29 09:42 | 35.45576 | 8.06767 | 35023 ft | 427 kts | 234° |
| 2026-04-29 09:42 | 35.41729 | 8.01206 | 35025 ft | 427 kts | 233° |
| 2026-04-29 09:43 | 35.37883 | 7.95662 | 35021 ft | 427 kts | 233° |
| 2026-04-29 09:43 | 35.34032 | 7.90129 | 35020 ft | 426 kts | 233° |
| 2026-04-29 09:44 | 35.30170 | 7.84595 | 35022 ft | 427 kts | 233° |
| 2026-04-29 09:44 | 35.26302 | 7.79064 | 35022 ft | 427 kts | 233° |
| 2026-04-29 09:45 | 35.22433 | 7.73538 | 35027 ft | 427 kts | 233° |
| 2026-04-29 09:45 | 35.18564 | 7.68024 | 35017 ft | 427 kts | 232° |
| 2026-04-29 09:46 | 35.14693 | 7.62516 | 35015 ft | 427 kts | 232° |
| 2026-04-29 09:46 | 35.10821 | 7.57014 | 35010 ft | 427 kts | 232° |
| 2026-04-29 09:47 | 35.06943 | 7.51513 | 35001 ft | 427 kts | 232° |
| 2026-04-29 09:47 | 35.03062 | 7.46017 | 34998 ft | 427 kts | 232° |
| 2026-04-29 09:48 | 34.99184 | 7.40531 | 35009 ft | 427 kts | 232° |
| 2026-04-29 09:48 | 34.95328 | 7.35089 | 34991 ft | 426 kts | 232° |
| 2026-04-29 09:49 | 34.91444 | 7.29615 | 34989 ft | 427 kts | 232° |
| 2026-04-29 09:49 | 34.87520 | 7.24094 | 34986 ft | 428 kts | 232° |
| 2026-04-29 09:50 | 34.83620 | 7.18618 | 34987 ft | 428 kts | 232° |
| 2026-04-29 09:50 | 34.79719 | 7.13145 | 34984 ft | 427 kts | 232° |
| 2026-04-29 09:51 | 34.75869 | 7.07636 | 34988 ft | 427 kts | 233° |
| 2026-04-29 09:51 | 34.72022 | 7.02123 | 34996 ft | 427 kts | 232° |
| 2026-04-29 09:52 | 34.68171 | 6.96621 | 34982 ft | 427 kts | 232° |
| 2026-04-29 09:52 | 34.64315 | 6.91125 | 34986 ft | 427 kts | 232° |
| 2026-04-29 09:53 | 34.60458 | 6.85636 | 34986 ft | 427 kts | 232° |
| 2026-04-29 09:53 | 34.56598 | 6.80154 | 34970 ft | 427 kts | 232° |
| 2026-04-29 09:54 | 34.52737 | 6.74680 | 34963 ft | 427 kts | 232° |
| 2026-04-29 09:54 | 34.48870 | 6.69206 | 34958 ft | 427 kts | 232° |
| 2026-04-29 09:55 | 34.45036 | 6.63786 | 34958 ft | 426 kts | 232° |
| 2026-04-29 09:55 | 34.41176 | 6.58336 | 34954 ft | 426 kts | 232° |
| 2026-04-29 09:56 | 34.37314 | 6.52894 | 34952 ft | 425 kts | 232° |
| 2026-04-29 09:56 | 34.33451 | 6.47459 | 34948 ft | 425 kts | 232° |
| 2026-04-29 09:57 | 34.29587 | 6.42032 | 34951 ft | 426 kts | 232° |
| 2026-04-29 09:57 | 34.25718 | 6.36605 | 34950 ft | 426 kts | 232° |
| 2026-04-29 09:58 | 34.21848 | 6.31184 | 34945 ft | 425 kts | 232° |
| 2026-04-29 09:58 | 34.17977 | 6.25771 | 34947 ft | 425 kts | 232° |
| 2026-04-29 09:59 | 34.14105 | 6.20367 | 34950 ft | 425 kts | 232° |
| 2026-04-29 09:59 | 34.10228 | 6.14962 | 34950 ft | 425 kts | 232° |
| 2026-04-29 10:00 | 34.06350 | 6.09566 | 34951 ft | 425 kts | 232° |
| 2026-04-29 10:00 | 34.02469 | 6.04173 | 34946 ft | 425 kts | 232° |
| 2026-04-29 10:01 | 33.98588 | 5.98791 | 34949 ft | 425 kts | 232° |
| 2026-04-29 10:01 | 33.94703 | 5.93409 | 34950 ft | 425 kts | 232° |
| 2026-04-29 10:02 | 33.90843 | 5.88003 | 34946 ft | 425 kts | 232° |
| 2026-04-29 10:02 | 33.87007 | 5.82579 | 34952 ft | 425 kts | 232° |
| 2026-04-29 10:03 | 33.83164 | 5.77161 | 34945 ft | 425 kts | 232° |
| 2026-04-29 10:03 | 33.79317 | 5.71752 | 34952 ft | 425 kts | 232° |
| 2026-04-29 10:04 | 33.75472 | 5.66355 | 34945 ft | 424 kts | 232° |
| 2026-04-29 10:04 | 33.71626 | 5.60965 | 34951 ft | 424 kts | 232° |
| 2026-04-29 10:05 | 33.67778 | 5.55582 | 34953 ft | 424 kts | 232° |
| 2026-04-29 10:05 | 33.63959 | 5.50245 | 34952 ft | 423 kts | 232° |
| 2026-04-29 10:06 | 33.60114 | 5.44882 | 34951 ft | 423 kts | 232° |
| 2026-04-29 10:06 | 33.56272 | 5.39530 | 34949 ft | 423 kts | 232° |
| 2026-04-29 10:07 | 33.52427 | 5.34184 | 34948 ft | 422 kts | 232° |
| 2026-04-29 10:07 | 33.48589 | 5.28855 | 34950 ft | 422 kts | 232° |
| 2026-04-29 10:08 | 33.44748 | 5.23530 | 34947 ft | 422 kts | 232° |
| 2026-04-29 10:08 | 33.40903 | 5.18207 | 34943 ft | 422 kts | 232° |
| 2026-04-29 10:09 | 33.37056 | 5.12890 | 34945 ft | 422 kts | 232° |
| 2026-04-29 10:09 | 33.33212 | 5.07586 | 34949 ft | 421 kts | 232° |
| 2026-04-29 10:10 | 33.29372 | 5.02295 | 34948 ft | 421 kts | 231° |
| 2026-04-29 10:10 | 33.25552 | 4.96992 | 34960 ft | 421 kts | 232° |
| 2026-04-29 10:11 | 33.21764 | 4.91658 | 34961 ft | 421 kts | 232° |
| 2026-04-29 10:11 | 33.17970 | 4.86326 | 34958 ft | 421 kts | 232° |
| 2026-04-29 10:12 | 33.14171 | 4.81003 | 34958 ft | 421 kts | 232° |
| 2026-04-29 10:12 | 33.10370 | 4.75687 | 34956 ft | 421 kts | 232° |
| 2026-04-29 10:13 | 33.06565 | 4.70375 | 34958 ft | 421 kts | 232° |
| 2026-04-29 10:13 | 33.02758 | 4.65066 | 34958 ft | 421 kts | 232° |
| 2026-04-29 10:14 | 32.98952 | 4.59770 | 34962 ft | 421 kts | 232° |
| 2026-04-29 10:14 | 32.95143 | 4.54475 | 34965 ft | 421 kts | 232° |
| 2026-04-29 10:15 | 32.91333 | 4.49188 | 34968 ft | 420 kts | 232° |
| 2026-04-29 10:15 | 32.87518 | 4.43901 | 34968 ft | 420 kts | 232° |
| 2026-04-29 10:16 | 32.84346 | 4.39511 | 34966 ft | 421 kts | 232° |
| 2026-04-29 10:16 | 32.79884 | 4.33343 | 34972 ft | 421 kts | 232° |
| 2026-04-29 10:17 | 32.76707 | 4.28959 | 34969 ft | 420 kts | 231° |
| 2026-04-29 10:17 | 32.72887 | 4.23694 | 34969 ft | 420 kts | 231° |
| 2026-04-29 10:18 | 32.69064 | 4.18434 | 34966 ft | 420 kts | 231° |
| 2026-04-29 10:18 | 32.65239 | 4.13177 | 34972 ft | 420 kts | 231° |
| 2026-04-29 10:19 | 32.61410 | 4.07924 | 34977 ft | 420 kts | 231° |
| 2026-04-29 10:19 | 32.57580 | 4.02676 | 34975 ft | 420 kts | 231° |
| 2026-04-29 10:20 | 32.53751 | 3.97435 | 34977 ft | 421 kts | 231° |
| 2026-04-29 10:20 | 32.49911 | 3.92190 | 34976 ft | 421 kts | 231° |
| 2026-04-29 10:21 | 32.46072 | 3.86957 | 34970 ft | 420 kts | 231° |
| 2026-04-29 10:21 | 32.42235 | 3.81731 | 34968 ft | 420 kts | 231° |
| 2026-04-29 10:22 | 32.38282 | 3.76620 | 34969 ft | 421 kts | 227° |
| 2026-04-29 10:22 | 32.34069 | 3.71784 | 34967 ft | 422 kts | 227° |
| 2026-04-29 10:23 | 32.29853 | 3.66955 | 34966 ft | 422 kts | 227° |
| 2026-04-29 10:23 | 32.25633 | 3.62135 | 34966 ft | 422 kts | 227° |
| 2026-04-29 10:24 | 32.21408 | 3.57323 | 34974 ft | 422 kts | 227° |
| 2026-04-29 10:24 | 32.17180 | 3.52513 | 34977 ft | 422 kts | 227° |
| 2026-04-29 10:25 | 32.12939 | 3.47699 | 34977 ft | 423 kts | 226° |
| 2026-04-29 10:25 | 32.08699 | 3.42892 | 34976 ft | 423 kts | 226° |
| 2026-04-29 10:26 | 32.04453 | 3.38084 | 34976 ft | 423 kts | 226° |
| 2026-04-29 10:26 | 32.00206 | 3.33283 | 34973 ft | 423 kts | 226° |
| 2026-04-29 10:27 | 31.93841 | 3.26100 | 34969 ft | 421 kts | 226° |
| 2026-04-29 10:28 | 31.89605 | 3.21327 | 34969 ft | 421 kts | 226° |
| 2026-04-29 10:28 | 31.85398 | 3.16592 | 34968 ft | 421 kts | 226° |
| 2026-04-29 10:29 | 31.81157 | 3.11826 | 34966 ft | 421 kts | 226° |
| 2026-04-29 10:29 | 31.76887 | 3.07035 | 34969 ft | 421 kts | 226° |
| 2026-04-29 10:30 | 31.72673 | 3.02311 | 34965 ft | 422 kts | 226° |
| 2026-04-29 10:30 | 31.68422 | 2.97552 | 34958 ft | 422 kts | 226° |
| 2026-04-29 10:31 | 31.64165 | 2.92794 | 34963 ft | 422 kts | 226° |
| 2026-04-29 10:31 | 31.59905 | 2.88040 | 34963 ft | 422 kts | 226° |
| 2026-04-29 10:32 | 31.55643 | 2.83289 | 34960 ft | 422 kts | 226° |
| 2026-04-29 10:32 | 31.51380 | 2.78543 | 34959 ft | 422 kts | 226° |
| 2026-04-29 10:33 | 31.47113 | 2.73798 | 34957 ft | 422 kts | 226° |
| 2026-04-29 10:33 | 31.42849 | 2.69063 | 34949 ft | 422 kts | 226° |
| 2026-04-29 10:34 | 31.38581 | 2.64333 | 34946 ft | 422 kts | 226° |
| 2026-04-29 10:34 | 31.34312 | 2.59606 | 34946 ft | 422 kts | 226° |
| 2026-04-29 10:35 | 31.30046 | 2.54891 | 34953 ft | 421 kts | 226° |
| 2026-04-29 10:35 | 31.25781 | 2.50182 | 34952 ft | 421 kts | 226° |
| 2026-04-29 10:36 | 31.21536 | 2.45460 | 34949 ft | 421 kts | 226° |
| 2026-04-29 10:36 | 31.17316 | 2.40704 | 34951 ft | 421 kts | 226° |
| 2026-04-29 10:37 | 31.13097 | 2.35959 | 34945 ft | 421 kts | 226° |
| 2026-04-29 10:37 | 31.08871 | 2.31217 | 34952 ft | 420 kts | 226° |
| 2026-04-29 10:38 | 31.04650 | 2.26490 | 34950 ft | 420 kts | 226° |
| 2026-04-29 10:38 | 31.00430 | 2.21768 | 34948 ft | 420 kts | 226° |
| 2026-04-29 10:39 | 30.96212 | 2.17058 | 34948 ft | 420 kts | 226° |
| 2026-04-29 10:39 | 30.91995 | 2.12355 | 34948 ft | 419 kts | 226° |
| 2026-04-29 10:40 | 30.87779 | 2.07659 | 34947 ft | 419 kts | 226° |
| 2026-04-29 10:40 | 30.83562 | 2.02968 | 34953 ft | 419 kts | 226° |
| 2026-04-29 10:41 | 30.79348 | 1.98286 | 34949 ft | 418 kts | 226° |
| 2026-04-29 10:41 | 30.75160 | 1.93639 | 34935 ft | 419 kts | 226° |
| 2026-04-29 10:42 | 30.70913 | 1.88933 | 34943 ft | 419 kts | 226° |
| 2026-04-29 10:42 | 30.66723 | 1.84294 | 34935 ft | 418 kts | 226° |
| 2026-04-29 10:43 | 30.62507 | 1.79633 | 34936 ft | 418 kts | 226° |
| 2026-04-29 10:43 | 30.58263 | 1.74950 | 34938 ft | 417 kts | 226° |
| 2026-04-29 10:44 | 30.54051 | 1.70306 | 34932 ft | 417 kts | 226° |
| 2026-04-29 10:44 | 30.49837 | 1.65666 | 34931 ft | 417 kts | 226° |
| 2026-04-29 10:45 | 30.45623 | 1.61033 | 34931 ft | 417 kts | 226° |
| 2026-04-29 10:45 | 30.41405 | 1.56402 | 34931 ft | 417 kts | 226° |
| 2026-04-29 10:46 | 30.37214 | 1.51807 | 34930 ft | 417 kts | 226° |
| 2026-04-29 10:46 | 30.32969 | 1.47206 | 34930 ft | 418 kts | 225° |
| 2026-04-29 10:47 | 30.28686 | 1.42651 | 34923 ft | 418 kts | 225° |
| 2026-04-29 10:47 | 30.24401 | 1.38098 | 34924 ft | 418 kts | 225° |
| 2026-04-29 10:48 | 30.20119 | 1.33549 | 34920 ft | 418 kts | 225° |
| 2026-04-29 10:48 | 30.15836 | 1.29000 | 34921 ft | 418 kts | 226° |
| 2026-04-29 10:49 | 30.11655 | 1.24340 | 34914 ft | 417 kts | 227° |
| 2026-04-29 10:49 | 30.07496 | 1.19655 | 34913 ft | 417 kts | 227° |
| 2026-04-29 10:50 | 30.03326 | 1.14977 | 34912 ft | 418 kts | 227° |
| 2026-04-29 10:50 | 29.99146 | 1.10301 | 34910 ft | 418 kts | 226° |
| 2026-04-29 10:51 | 29.94965 | 1.05634 | 34905 ft | 418 kts | 226° |
| 2026-04-29 10:51 | 29.90787 | 1.00976 | 34903 ft | 418 kts | 226° |
| 2026-04-29 10:52 | 29.86609 | 0.96326 | 34903 ft | 418 kts | 226° |
| 2026-04-29 10:52 | 29.82421 | 0.91669 | 34902 ft | 418 kts | 226° |
| 2026-04-29 10:53 | 29.78226 | 0.87012 | 34902 ft | 419 kts | 226° |
| 2026-04-29 10:53 | 29.74030 | 0.82358 | 34897 ft | 419 kts | 226° |
| 2026-04-29 10:54 | 29.69834 | 0.77711 | 34894 ft | 419 kts | 226° |
| 2026-04-29 10:54 | 29.65631 | 0.73062 | 34893 ft | 419 kts | 226° |
| 2026-04-29 10:55 | 29.61430 | 0.68419 | 34893 ft | 419 kts | 226° |
| 2026-04-29 10:55 | 29.57217 | 0.63770 | 34893 ft | 420 kts | 226° |
| 2026-04-29 10:56 | 29.53002 | 0.59125 | 34893 ft | 420 kts | 226° |
| 2026-04-29 10:56 | 29.48784 | 0.54482 | 34893 ft | 420 kts | 226° |
| 2026-04-29 10:57 | 29.44566 | 0.49845 | 34894 ft | 420 kts | 226° |
| 2026-04-29 10:57 | 29.40344 | 0.45210 | 34893 ft | 420 kts | 226° |
| 2026-04-29 10:58 | 29.36118 | 0.40575 | 34893 ft | 420 kts | 226° |
| 2026-04-29 10:58 | 29.31890 | 0.35944 | 34893 ft | 420 kts | 226° |
| 2026-04-29 10:59 | 29.27658 | 0.31316 | 34893 ft | 420 kts | 226° |
| 2026-04-29 10:59 | 29.23459 | 0.26657 | 34894 ft | 419 kts | 228° |
| 2026-04-29 11:00 | 29.19575 | 0.21685 | 34892 ft | 418 kts | 231° |
| 2026-04-29 11:00 | 29.15783 | 0.16618 | 34894 ft | 419 kts | 231° |
| 2026-04-29 11:01 | 29.12627 | 0.12407 | 34893 ft | 419 kts | 231° |
| 2026-04-29 11:01 | 29.08829 | 0.07339 | 34894 ft | 420 kts | 231° |
| 2026-04-29 11:02 | 29.05027 | 0.02267 | 34893 ft | 420 kts | 231° |
| 2026-04-29 11:02 | 29.01224 | -0.02799 | 34889 ft | 421 kts | 231° |
| 2026-04-29 11:03 | 28.97354 | -0.07943 | 34892 ft | 430 kts | 232° |
| 2026-04-29 11:03 | 28.93451 | -0.13136 | 34893 ft | 431 kts | 232° |
| 2026-04-29 11:04 | 28.89540 | -0.18329 | 34892 ft | 431 kts | 232° |
| 2026-04-29 11:04 | 28.85629 | -0.23518 | 34892 ft | 431 kts | 232° |
| 2026-04-29 11:05 | 28.81715 | -0.28701 | 34893 ft | 431 kts | 232° |
| 2026-04-29 11:05 | 28.77798 | -0.33882 | 34894 ft | 431 kts | 232° |
| 2026-04-29 11:06 | 28.73884 | -0.39052 | 34893 ft | 430 kts | 232° |
| 2026-04-29 11:06 | 28.69971 | -0.44215 | 34894 ft | 430 kts | 232° |
| 2026-04-29 11:07 | 28.66057 | -0.49373 | 34893 ft | 430 kts | 232° |
| 2026-04-29 11:07 | 28.62139 | -0.54530 | 34893 ft | 430 kts | 232° |
| 2026-04-29 11:08 | 28.58221 | -0.59682 | 34894 ft | 429 kts | 232° |
| 2026-04-29 11:08 | 28.54311 | -0.64815 | 34894 ft | 429 kts | 232° |
| 2026-04-29 11:09 | 28.50398 | -0.69946 | 34894 ft | 429 kts | 232° |
| 2026-04-29 11:09 | 28.46482 | -0.75074 | 34893 ft | 429 kts | 231° |
| 2026-04-29 11:10 | 28.42566 | -0.80195 | 34894 ft | 428 kts | 232° |
| 2026-04-29 11:10 | 28.38655 | -0.85305 | 34893 ft | 428 kts | 231° |
| 2026-04-29 11:11 | 28.34745 | -0.90409 | 34893 ft | 428 kts | 231° |
| 2026-04-29 11:11 | 28.30832 | -0.95508 | 34895 ft | 428 kts | 231° |
| 2026-04-29 11:12 | 28.26925 | -1.00592 | 34893 ft | 427 kts | 231° |
| 2026-04-29 11:12 | 28.23015 | -1.05675 | 34894 ft | 427 kts | 231° |
| 2026-04-29 11:13 | 28.19107 | -1.10750 | 34894 ft | 427 kts | 231° |
| 2026-04-29 11:13 | 28.15201 | -1.15817 | 34892 ft | 426 kts | 231° |
| 2026-04-29 11:14 | 28.11299 | -1.20871 | 34893 ft | 426 kts | 231° |
| 2026-04-29 11:14 | 28.07401 | -1.25914 | 34894 ft | 425 kts | 231° |
| 2026-04-29 11:15 | 28.03500 | -1.30954 | 34893 ft | 425 kts | 231° |
| 2026-04-29 11:15 | 27.99607 | -1.35979 | 34894 ft | 424 kts | 231° |
| 2026-04-29 11:16 | 27.95717 | -1.40995 | 34895 ft | 423 kts | 231° |
| 2026-04-29 11:16 | 27.91832 | -1.45996 | 34893 ft | 423 kts | 231° |
| 2026-04-29 11:17 | 27.87945 | -1.50996 | 34893 ft | 423 kts | 231° |
| 2026-04-29 11:17 | 27.84057 | -1.55991 | 34894 ft | 423 kts | 231° |
| 2026-04-29 11:18 | 27.80167 | -1.60981 | 34893 ft | 423 kts | 231° |
| 2026-04-29 11:18 | 27.76275 | -1.65970 | 34894 ft | 423 kts | 231° |
| 2026-04-29 11:19 | 27.72376 | -1.70961 | 34895 ft | 423 kts | 231° |
| 2026-04-29 11:19 | 27.68482 | -1.75939 | 34892 ft | 423 kts | 231° |
| 2026-04-29 11:20 | 27.64609 | -1.80885 | 34893 ft | 423 kts | 231° |
| 2026-04-29 11:20 | 27.60709 | -1.85861 | 34893 ft | 423 kts | 231° |
| 2026-04-29 11:21 | 27.56809 | -1.90829 | 34893 ft | 423 kts | 231° |
| 2026-04-29 11:21 | 27.52904 | -1.95799 | 34893 ft | 423 kts | 231° |
| 2026-04-29 11:22 | 27.49003 | -2.00758 | 34892 ft | 423 kts | 231° |
| 2026-04-29 11:22 | 27.45094 | -2.05720 | 34892 ft | 423 kts | 231° |
| 2026-04-29 11:23 | 27.41184 | -2.10680 | 34893 ft | 423 kts | 231° |
| 2026-04-29 11:23 | 27.37270 | -2.15638 | 34892 ft | 423 kts | 231° |
| 2026-04-29 11:24 | 27.33355 | -2.20592 | 34894 ft | 423 kts | 231° |
| 2026-04-29 11:24 | 27.29445 | -2.25532 | 34895 ft | 422 kts | 231° |
| 2026-04-29 11:25 | 27.25531 | -2.30471 | 34902 ft | 423 kts | 231° |
| 2026-04-29 11:25 | 27.21613 | -2.35412 | 34902 ft | 423 kts | 231° |
| 2026-04-29 11:26 | 27.15732 | -2.42819 | 34905 ft | 423 kts | 231° |
| 2026-04-29 11:26 | 27.11807 | -2.47754 | 34903 ft | 423 kts | 231° |
| 2026-04-29 11:27 | 27.07881 | -2.52684 | 34906 ft | 424 kts | 231° |
| 2026-04-29 11:27 | 27.03951 | -2.57615 | 34900 ft | 423 kts | 231° |
| 2026-04-29 11:28 | 27.00020 | -2.62540 | 34901 ft | 423 kts | 231° |
| 2026-04-29 11:28 | 26.96089 | -2.67460 | 34902 ft | 423 kts | 231° |
| 2026-04-29 11:29 | 26.92158 | -2.72374 | 34902 ft | 423 kts | 231° |
| 2026-04-29 11:29 | 26.88229 | -2.77280 | 34903 ft | 423 kts | 231° |
| 2026-04-29 11:30 | 26.84298 | -2.82184 | 34902 ft | 423 kts | 231° |
| 2026-04-29 11:30 | 26.80365 | -2.87084 | 34903 ft | 423 kts | 231° |
| 2026-04-29 11:31 | 26.76429 | -2.91983 | 34903 ft | 423 kts | 231° |
| 2026-04-29 11:31 | 26.72492 | -2.96877 | 34902 ft | 423 kts | 231° |
| 2026-04-29 11:32 | 26.68554 | -3.01768 | 34903 ft | 423 kts | 231° |
| 2026-04-29 11:32 | 26.64610 | -3.06658 | 34903 ft | 423 kts | 231° |
| 2026-04-29 11:33 | 26.60661 | -3.11551 | 34903 ft | 423 kts | 231° |
| 2026-04-29 11:33 | 26.56713 | -3.16438 | 34903 ft | 423 kts | 231° |
| 2026-04-29 11:34 | 26.52762 | -3.21322 | 34903 ft | 423 kts | 231° |
| 2026-04-29 11:34 | 26.48809 | -3.26204 | 34903 ft | 423 kts | 231° |
| 2026-04-29 11:35 | 26.44852 | -3.31085 | 34906 ft | 423 kts | 231° |
| 2026-04-29 11:35 | 26.40893 | -3.35963 | 34910 ft | 424 kts | 231° |
| 2026-04-29 11:36 | 26.36926 | -3.40845 | 34912 ft | 425 kts | 231° |
| 2026-04-29 11:36 | 26.32955 | -3.45727 | 34912 ft | 425 kts | 231° |
| 2026-04-29 11:37 | 26.28981 | -3.50607 | 34912 ft | 425 kts | 231° |
| 2026-04-29 11:37 | 26.25003 | -3.55483 | 34912 ft | 425 kts | 231° |
| 2026-04-29 11:38 | 26.21021 | -3.60362 | 34911 ft | 425 kts | 231° |
| 2026-04-29 11:38 | 26.17038 | -3.65236 | 34911 ft | 425 kts | 231° |
| 2026-04-29 11:39 | 26.13052 | -3.70108 | 34919 ft | 425 kts | 231° |
| 2026-04-29 11:39 | 26.09113 | -3.75018 | 34920 ft | 425 kts | 232° |
| 2026-04-29 11:40 | 26.05224 | -3.79977 | 34922 ft | 425 kts | 232° |
| 2026-04-29 11:40 | 26.01329 | -3.84928 | 34921 ft | 425 kts | 232° |
| 2026-04-29 11:41 | 25.97431 | -3.89870 | 34921 ft | 425 kts | 232° |
| 2026-04-29 11:41 | 25.93526 | -3.94812 | 34921 ft | 425 kts | 231° |
| 2026-04-29 11:42 | 25.89620 | -3.99749 | 34922 ft | 425 kts | 231° |
| 2026-04-29 11:42 | 25.85715 | -4.04678 | 34921 ft | 425 kts | 231° |
| 2026-04-29 11:43 | 25.82466 | -4.08775 | 34921 ft | 425 kts | 231° |
| 2026-04-29 11:43 | 25.78553 | -4.13704 | 34922 ft | 425 kts | 231° |
| 2026-04-29 11:44 | 25.74640 | -4.18627 | 34920 ft | 424 kts | 231° |
| 2026-04-29 11:44 | 25.70732 | -4.23539 | 34921 ft | 424 kts | 231° |
| 2026-04-29 11:45 | 25.66822 | -4.28449 | 34921 ft | 424 kts | 231° |
| 2026-04-29 11:45 | 25.62912 | -4.33353 | 34922 ft | 424 kts | 231° |
| 2026-04-29 11:46 | 25.59002 | -4.38251 | 34923 ft | 424 kts | 231° |
| 2026-04-29 11:46 | 25.55095 | -4.43141 | 34924 ft | 424 kts | 231° |
| 2026-04-29 11:47 | 25.51184 | -4.48031 | 34921 ft | 424 kts | 231° |
| 2026-04-29 11:47 | 25.47270 | -4.52919 | 34921 ft | 424 kts | 231° |
| 2026-04-29 11:48 | 25.43356 | -4.57802 | 34921 ft | 424 kts | 231° |
| 2026-04-29 11:48 | 25.39438 | -4.62685 | 34921 ft | 424 kts | 231° |
| 2026-04-29 11:49 | 25.35523 | -4.67558 | 34924 ft | 423 kts | 231° |
| 2026-04-29 11:49 | 25.31607 | -4.72426 | 34928 ft | 423 kts | 231° |
| 2026-04-29 11:50 | 25.27690 | -4.77293 | 34930 ft | 423 kts | 231° |
| 2026-04-29 11:50 | 25.23798 | -4.82122 | 34930 ft | 423 kts | 231° |
| 2026-04-29 11:51 | 25.19851 | -4.87014 | 34930 ft | 423 kts | 231° |
| 2026-04-29 11:51 | 25.15927 | -4.91873 | 34933 ft | 423 kts | 231° |
| 2026-04-29 11:52 | 25.12004 | -4.96721 | 34932 ft | 423 kts | 231° |
| 2026-04-29 11:52 | 25.08103 | -5.01569 | 34934 ft | 422 kts | 232° |
| 2026-04-29 11:53 | 25.04304 | -5.06458 | 34930 ft | 422 kts | 232° |
| 2026-04-29 11:53 | 25.00482 | -5.11381 | 34929 ft | 422 kts | 232° |
| 2026-04-29 11:54 | 24.96652 | -5.16301 | 34930 ft | 422 kts | 232° |
| 2026-04-29 11:54 | 24.92818 | -5.21213 | 34930 ft | 422 kts | 232° |
| 2026-04-29 11:55 | 24.88990 | -5.26112 | 34930 ft | 422 kts | 232° |
| 2026-04-29 11:55 | 24.85131 | -5.31044 | 34930 ft | 422 kts | 232° |
| 2026-04-29 11:56 | 24.81323 | -5.35905 | 34929 ft | 421 kts | 232° |
| 2026-04-29 11:56 | 24.77493 | -5.40791 | 34930 ft | 421 kts | 232° |
| 2026-04-29 11:57 | 24.73663 | -5.45669 | 34930 ft | 420 kts | 232° |
| 2026-04-29 11:57 | 24.69836 | -5.50540 | 34931 ft | 420 kts | 232° |
| 2026-04-29 11:58 | 24.66011 | -5.55402 | 34935 ft | 420 kts | 232° |
| 2026-04-29 11:58 | 24.62190 | -5.60254 | 34930 ft | 419 kts | 232° |
| 2026-04-29 11:59 | 24.58373 | -5.65097 | 34931 ft | 418 kts | 232° |
| 2026-04-29 11:59 | 24.54561 | -5.69930 | 34930 ft | 418 kts | 232° |
| 2026-04-29 12:00 | 24.50751 | -5.74753 | 34931 ft | 417 kts | 232° |
| 2026-04-29 12:00 | 24.46943 | -5.79571 | 34930 ft | 417 kts | 232° |
| 2026-04-29 12:01 | 24.43136 | -5.84380 | 34931 ft | 417 kts | 232° |
| 2026-04-29 12:01 | 24.39330 | -5.89185 | 34930 ft | 417 kts | 232° |
| 2026-04-29 12:02 | 24.35520 | -5.93983 | 34927 ft | 417 kts | 233° |
| 2026-04-29 12:02 | 24.31700 | -5.98795 | 34930 ft | 419 kts | 233° |
| 2026-04-29 12:03 | 24.27876 | -6.03611 | 34930 ft | 418 kts | 233° |
| 2026-04-29 12:03 | 24.24054 | -6.08415 | 34929 ft | 418 kts | 233° |
| 2026-04-29 12:04 | 24.20228 | -6.13220 | 34930 ft | 418 kts | 233° |
| 2026-04-29 12:04 | 24.16405 | -6.18020 | 34930 ft | 418 kts | 233° |
| 2026-04-29 12:05 | 24.12583 | -6.22819 | 34930 ft | 418 kts | 233° |
| 2026-04-29 12:05 | 24.08757 | -6.27616 | 34929 ft | 418 kts | 233° |
| 2026-04-29 12:06 | 24.04955 | -6.32376 | 34930 ft | 418 kts | 233° |
| 2026-04-29 12:06 | 24.01125 | -6.37167 | 34931 ft | 419 kts | 233° |
| 2026-04-29 12:07 | 23.97287 | -6.41962 | 34931 ft | 418 kts | 233° |
| 2026-04-29 12:07 | 23.93451 | -6.46749 | 34930 ft | 418 kts | 233° |
| 2026-04-29 12:08 | 23.89616 | -6.51531 | 34931 ft | 418 kts | 233° |
| 2026-04-29 12:08 | 23.85777 | -6.56313 | 34930 ft | 418 kts | 233° |
| 2026-04-29 12:09 | 23.81933 | -6.61097 | 34934 ft | 419 kts | 233° |
| 2026-04-29 12:09 | 23.78078 | -6.65887 | 34935 ft | 420 kts | 233° |
| 2026-04-29 12:10 | 23.74222 | -6.70677 | 34945 ft | 420 kts | 233° |
| 2026-04-29 12:10 | 23.70361 | -6.75467 | 34943 ft | 420 kts | 233° |
| 2026-04-29 12:11 | 23.66500 | -6.80251 | 34937 ft | 419 kts | 233° |
| 2026-04-29 12:11 | 23.62642 | -6.85028 | 34940 ft | 419 kts | 233° |
| 2026-04-29 12:12 | 23.58783 | -6.89800 | 34944 ft | 419 kts | 233° |
| 2026-04-29 12:12 | 23.54926 | -6.94568 | 34943 ft | 419 kts | 233° |
| 2026-04-29 12:13 | 23.51066 | -6.99337 | 34942 ft | 419 kts | 233° |
| 2026-04-29 12:13 | 23.47204 | -7.04101 | 34943 ft | 419 kts | 233° |
| 2026-04-29 12:14 | 23.43339 | -7.08864 | 34943 ft | 419 kts | 233° |
| 2026-04-29 12:14 | 23.39471 | -7.13624 | 34945 ft | 419 kts | 233° |
| 2026-04-29 12:15 | 23.35601 | -7.18382 | 34935 ft | 419 kts | 233° |
| 2026-04-29 12:15 | 23.31727 | -7.23138 | 34945 ft | 420 kts | 233° |
| 2026-04-29 12:16 | 23.27850 | -7.27897 | 34941 ft | 420 kts | 233° |
| 2026-04-29 12:16 | 23.23971 | -7.32652 | 34932 ft | 420 kts | 233° |
| 2026-04-29 12:17 | 23.20088 | -7.37408 | 34931 ft | 420 kts | 233° |
| 2026-04-29 12:17 | 23.16203 | -7.42162 | 34929 ft | 420 kts | 233° |
| 2026-04-29 12:18 | 23.12317 | -7.46912 | 34930 ft | 420 kts | 233° |
| 2026-04-29 12:18 | 23.08430 | -7.51660 | 34928 ft | 420 kts | 233° |
| 2026-04-29 12:19 | 23.04535 | -7.56413 | 34930 ft | 421 kts | 233° |
| 2026-04-29 12:19 | 23.00636 | -7.61164 | 34930 ft | 421 kts | 233° |
| 2026-04-29 12:20 | 22.96738 | -7.65911 | 34944 ft | 421 kts | 233° |
| 2026-04-29 12:20 | 22.92834 | -7.70659 | 34945 ft | 421 kts | 233° |
| 2026-04-29 12:21 | 22.88926 | -7.75411 | 34934 ft | 422 kts | 233° |
| 2026-04-29 12:21 | 22.85013 | -7.80164 | 34943 ft | 422 kts | 233° |
| 2026-04-29 12:22 | 22.81096 | -7.84916 | 34945 ft | 422 kts | 233° |
| 2026-04-29 12:22 | 22.77175 | -7.89668 | 34941 ft | 422 kts | 233° |
| 2026-04-29 12:23 | 22.73254 | -7.94417 | 34935 ft | 422 kts | 233° |
| 2026-04-29 12:23 | 22.69328 | -7.99165 | 34941 ft | 422 kts | 233° |
| 2026-04-29 12:24 | 22.65404 | -8.03907 | 34942 ft | 423 kts | 233° |
| 2026-04-29 12:24 | 22.61475 | -8.08651 | 34945 ft | 423 kts | 233° |
| 2026-04-29 12:25 | 22.57546 | -8.13393 | 34944 ft | 423 kts | 233° |
| 2026-04-29 12:26 | 22.51651 | -8.20497 | 34949 ft | 423 kts | 233° |
| 2026-04-29 12:26 | 22.47717 | -8.25233 | 34953 ft | 423 kts | 233° |
| 2026-04-29 12:27 | 22.44448 | -8.29164 | 34950 ft | 423 kts | 233° |
| 2026-04-29 12:27 | 22.39874 | -8.34659 | 34949 ft | 423 kts | 233° |
| 2026-04-29 12:28 | 22.35937 | -8.39386 | 34950 ft | 423 kts | 233° |
| 2026-04-29 12:28 | 22.32634 | -8.43346 | 34949 ft | 423 kts | 233° |
| 2026-04-29 12:29 | 22.28695 | -8.48067 | 34951 ft | 423 kts | 233° |
| 2026-04-29 12:29 | 22.24752 | -8.52787 | 34948 ft | 423 kts | 233° |
| 2026-04-29 12:30 | 22.20807 | -8.57504 | 34950 ft | 423 kts | 233° |
| 2026-04-29 12:30 | 22.16862 | -8.62216 | 34950 ft | 423 kts | 233° |
| 2026-04-29 12:31 | 22.12914 | -8.66928 | 34948 ft | 423 kts | 233° |
| 2026-04-29 12:31 | 22.08970 | -8.71639 | 34952 ft | 423 kts | 233° |
| 2026-04-29 12:32 | 22.05024 | -8.76346 | 34961 ft | 423 kts | 233° |
| 2026-04-29 12:32 | 22.01075 | -8.81050 | 34963 ft | 423 kts | 233° |
| 2026-04-29 12:33 | 21.97125 | -8.85752 | 34963 ft | 424 kts | 233° |
| 2026-04-29 12:33 | 21.93157 | -8.90468 | 34964 ft | 425 kts | 233° |
| 2026-04-29 12:34 | 21.89184 | -8.95187 | 34967 ft | 425 kts | 233° |
| 2026-04-29 12:34 | 21.85208 | -8.99905 | 34968 ft | 425 kts | 233° |
| 2026-04-29 12:35 | 21.81234 | -9.04617 | 34967 ft | 425 kts | 233° |
| 2026-04-29 12:35 | 21.77254 | -9.09331 | 34967 ft | 425 kts | 233° |
| 2026-04-29 12:36 | 21.73274 | -9.14041 | 34973 ft | 425 kts | 233° |
| 2026-04-29 12:36 | 21.69291 | -9.18751 | 34976 ft | 425 kts | 232° |
| 2026-04-29 12:37 | 21.65309 | -9.23455 | 34978 ft | 425 kts | 232° |
| 2026-04-29 12:37 | 21.61324 | -9.28159 | 34976 ft | 425 kts | 232° |
| 2026-04-29 12:38 | 21.57364 | -9.32828 | 34976 ft | 425 kts | 232° |
| 2026-04-29 12:38 | 21.53376 | -9.37527 | 34978 ft | 425 kts | 232° |
| 2026-04-29 12:39 | 21.49387 | -9.42223 | 34977 ft | 425 kts | 232° |
| 2026-04-29 12:39 | 21.45396 | -9.46918 | 34976 ft | 425 kts | 232° |
| 2026-04-29 12:40 | 21.41402 | -9.51611 | 34978 ft | 425 kts | 232° |
| 2026-04-29 12:40 | 21.37407 | -9.56301 | 34980 ft | 425 kts | 232° |
| 2026-04-29 12:41 | 21.35135 | -9.58967 | 34984 ft | 425 kts | 232° |
| 2026-04-29 13:58 | 21.34162 | -9.60108 | 34981 ft | 425 kts | 232° |
| 2026-04-29 13:59 | 21.30161 | -9.64798 | 34970 ft | 425 kts | 232° |
| 2026-04-29 13:59 | 21.26158 | -9.69485 | 34969 ft | 426 kts | 232° |
| 2026-04-29 14:00 | 21.22155 | -9.74171 | 34967 ft | 426 kts | 232° |
| 2026-04-29 14:00 | 21.18144 | -9.78861 | 34968 ft | 426 kts | 232° |
| 2026-04-29 14:01 | 21.14134 | -9.83547 | 34972 ft | 427 kts | 232° |
| 2026-04-29 14:01 | 21.10114 | -9.88239 | 34975 ft | 427 kts | 232° |
| 2026-04-29 14:02 | 21.06092 | -9.92929 | 34976 ft | 427 kts | 232° |
| 2026-04-29 14:02 | 21.02064 | -9.97622 | 34977 ft | 428 kts | 232° |
| 2026-04-29 14:03 | 20.98037 | -10.02309 | 34977 ft | 429 kts | 232° |
| 2026-04-29 14:03 | 20.93995 | -10.07011 | 34977 ft | 429 kts | 232° |
| 2026-04-29 14:04 | 20.89951 | -10.11711 | 34977 ft | 429 kts | 232° |
| 2026-04-29 14:04 | 20.85903 | -10.16412 | 34977 ft | 430 kts | 232° |
| 2026-04-29 14:05 | 20.81848 | -10.21117 | 34977 ft | 430 kts | 232° |
| 2026-04-29 14:05 | 20.77787 | -10.25824 | 34977 ft | 430 kts | 232° |
| 2026-04-29 14:06 | 20.73728 | -10.30524 | 34975 ft | 430 kts | 232° |
| 2026-04-29 14:06 | 20.69665 | -10.35226 | 34976 ft | 430 kts | 232° |
| 2026-04-29 14:07 | 20.65602 | -10.39924 | 34976 ft | 430 kts | 232° |
| 2026-04-29 14:07 | 20.61537 | -10.44621 | 34977 ft | 430 kts | 232° |
| 2026-04-29 14:08 | 20.57468 | -10.49317 | 34978 ft | 430 kts | 232° |
| 2026-04-29 14:08 | 20.53395 | -10.54015 | 34977 ft | 431 kts | 232° |
| 2026-04-29 14:09 | 20.49318 | -10.58713 | 34971 ft | 431 kts | 232° |
| 2026-04-29 14:09 | 20.45264 | -10.63380 | 34970 ft | 431 kts | 232° |
| 2026-04-29 14:10 | 20.41184 | -10.68074 | 34969 ft | 431 kts | 232° |
| 2026-04-29 14:10 | 20.37100 | -10.72767 | 34975 ft | 431 kts | 232° |
| 2026-04-29 14:11 | 20.33015 | -10.77458 | 34977 ft | 431 kts | 232° |
| 2026-04-29 14:11 | 20.28927 | -10.82148 | 34977 ft | 432 kts | 232° |
| 2026-04-29 14:12 | 20.24834 | -10.86840 | 34976 ft | 432 kts | 232° |
| 2026-04-29 14:12 | 20.20741 | -10.91529 | 34977 ft | 432 kts | 232° |
| 2026-04-29 14:13 | 20.16645 | -10.96217 | 34976 ft | 432 kts | 232° |
| 2026-04-29 14:13 | 20.12552 | -11.00896 | 34977 ft | 432 kts | 232° |
| 2026-04-29 14:14 | 20.08454 | -11.05577 | 34976 ft | 432 kts | 232° |
| 2026-04-29 14:14 | 20.04260 | -11.10178 | 34975 ft | 435 kts | 228° |
| 2026-04-29 14:15 | 19.99449 | -11.14162 | 34977 ft | 442 kts | 220° |
| 2026-04-29 14:15 | 19.94002 | -11.17363 | 34975 ft | 453 kts | 211° |
| 2026-04-29 14:16 | 19.87995 | -11.19638 | 34976 ft | 464 kts | 202° |
| 2026-04-29 14:16 | 19.81706 | -11.21255 | 34977 ft | 465 kts | 201° |
| 2026-04-29 14:17 | 19.75403 | -11.22822 | 34977 ft | 465 kts | 201° |
| 2026-04-29 14:17 | 19.69099 | -11.24387 | 34977 ft | 465 kts | 201° |
| 2026-04-29 14:18 | 19.63382 | -11.25806 | 34976 ft | 465 kts | 200° |
| 2026-04-29 14:18 | 19.59988 | -11.26647 | 34977 ft | 464 kts | 201° |
| 2026-04-29 14:19 | 19.53832 | -11.28174 | 34975 ft | 464 kts | 200° |
| 2026-04-29 14:19 | 19.47537 | -11.29733 | 34974 ft | 465 kts | 200° |
| 2026-04-29 14:20 | 19.41239 | -11.31292 | 34970 ft | 465 kts | 200° |
| 2026-04-29 14:20 | 19.34942 | -11.32850 | 34968 ft | 465 kts | 200° |
| 2026-04-29 14:21 | 19.28640 | -11.34407 | 34970 ft | 465 kts | 200° |
| 2026-04-29 14:21 | 19.22351 | -11.35960 | 34968 ft | 464 kts | 200° |
| 2026-04-29 14:22 | 19.16055 | -11.37513 | 34968 ft | 464 kts | 200° |
| 2026-04-29 14:22 | 19.09761 | -11.39065 | 34969 ft | 465 kts | 200° |
| 2026-04-29 14:23 | 19.03461 | -11.40617 | 34966 ft | 465 kts | 200° |
| 2026-04-29 14:23 | 18.97380 | -11.42114 | 34967 ft | 464 kts | 200° |
| 2026-04-29 14:24 | 18.91085 | -11.43662 | 34966 ft | 464 kts | 200° |
| 2026-04-29 14:24 | 18.84788 | -11.45210 | 34964 ft | 465 kts | 200° |
| 2026-04-29 14:25 | 18.78489 | -11.46757 | 34959 ft | 465 kts | 200° |
| 2026-04-29 14:25 | 18.72181 | -11.48305 | 34961 ft | 465 kts | 200° |
| 2026-04-29 14:26 | 18.65874 | -11.49851 | 34959 ft | 465 kts | 200° |
| 2026-04-29 14:26 | 18.59557 | -11.51399 | 34959 ft | 466 kts | 200° |
| 2026-04-29 14:27 | 18.53241 | -11.52946 | 34959 ft | 466 kts | 199° |
| 2026-04-29 14:28 | 18.43763 | -11.55263 | 34957 ft | 466 kts | 199° |
| 2026-04-29 14:28 | 18.37453 | -11.56805 | 34955 ft | 466 kts | 199° |
| 2026-04-29 14:29 | 18.31134 | -11.58347 | 34952 ft | 466 kts | 199° |
| 2026-04-29 14:29 | 18.24819 | -11.59888 | 34948 ft | 466 kts | 199° |
| 2026-04-29 14:30 | 18.18494 | -11.61429 | 34931 ft | 466 kts | 199° |
| 2026-04-29 14:30 | 18.12170 | -11.62967 | 34931 ft | 466 kts | 199° |
| 2026-04-29 14:31 | 18.05849 | -11.64505 | 34930 ft | 466 kts | 199° |
| 2026-04-29 14:31 | 17.99531 | -11.66045 | 34930 ft | 466 kts | 199° |
| 2026-04-29 14:32 | 17.93205 | -11.67587 | 34924 ft | 467 kts | 199° |
| 2026-04-29 14:32 | 17.86880 | -11.69123 | 34920 ft | 467 kts | 199° |
| 2026-04-29 14:33 | 17.80548 | -11.70659 | 34921 ft | 467 kts | 199° |
| 2026-04-29 14:33 | 17.74251 | -11.72186 | 34920 ft | 467 kts | 199° |
| 2026-04-29 14:34 | 17.67912 | -11.73721 | 34921 ft | 468 kts | 199° |
| 2026-04-29 14:34 | 17.61576 | -11.75256 | 34915 ft | 468 kts | 199° |
| 2026-04-29 14:35 | 17.55235 | -11.76791 | 34912 ft | 468 kts | 199° |
| 2026-04-29 14:35 | 17.48891 | -11.78325 | 34912 ft | 468 kts | 199° |
| 2026-04-29 14:36 | 17.42549 | -11.79857 | 34912 ft | 467 kts | 199° |
| 2026-04-29 14:36 | 17.36209 | -11.81388 | 34912 ft | 468 kts | 199° |
| 2026-04-29 14:37 | 17.29863 | -11.82918 | 34911 ft | 468 kts | 199° |
| 2026-04-29 14:37 | 17.23516 | -11.84449 | 34915 ft | 468 kts | 198° |
| 2026-04-29 14:38 | 17.17170 | -11.85978 | 34905 ft | 468 kts | 198° |
| 2026-04-29 14:38 | 17.10822 | -11.87505 | 34903 ft | 468 kts | 198° |
| 2026-04-29 14:39 | 17.04472 | -11.89033 | 34899 ft | 469 kts | 198° |
| 2026-04-29 14:39 | 16.98120 | -11.90560 | 34902 ft | 469 kts | 198° |
| 2026-04-29 14:40 | 16.91755 | -11.92089 | 34903 ft | 469 kts | 198° |
| 2026-04-29 14:40 | 16.85384 | -11.93617 | 34904 ft | 470 kts | 198° |
| 2026-04-29 14:41 | 16.79008 | -11.95146 | 34902 ft | 470 kts | 198° |
| 2026-04-29 14:41 | 16.72626 | -11.96680 | 34903 ft | 471 kts | 198° |
| 2026-04-29 14:42 | 16.67318 | -11.97955 | 34903 ft | 471 kts | 198° |
| 2026-04-29 14:42 | 16.60930 | -11.99485 | 34901 ft | 471 kts | 198° |
| 2026-04-29 14:43 | 16.54541 | -12.01014 | 34901 ft | 472 kts | 198° |
| 2026-04-29 14:43 | 16.48142 | -12.02545 | 34901 ft | 471 kts | 198° |
| 2026-04-29 14:44 | 16.41747 | -12.04074 | 34904 ft | 472 kts | 197° |
| 2026-04-29 14:44 | 16.35346 | -12.05603 | 34903 ft | 472 kts | 197° |
| 2026-04-29 14:45 | 16.28944 | -12.07131 | 34903 ft | 472 kts | 197° |
| 2026-04-29 14:45 | 16.22542 | -12.08659 | 34903 ft | 472 kts | 197° |
| 2026-04-29 14:46 | 16.16134 | -12.10186 | 34903 ft | 472 kts | 197° |
| 2026-04-29 14:46 | 16.09725 | -12.11713 | 34902 ft | 472 kts | 197° |
| 2026-04-29 14:47 | 16.03314 | -12.13239 | 34893 ft | 473 kts | 197° |
| 2026-04-29 14:47 | 15.96909 | -12.14762 | 34894 ft | 472 kts | 197° |
| 2026-04-29 14:48 | 15.90500 | -12.16286 | 34893 ft | 473 kts | 197° |
| 2026-04-29 14:48 | 15.84088 | -12.17809 | 34893 ft | 472 kts | 197° |
| 2026-04-29 14:49 | 15.77678 | -12.19331 | 34894 ft | 472 kts | 197° |
| 2026-04-29 14:49 | 15.71267 | -12.20852 | 34893 ft | 473 kts | 197° |
| 2026-04-29 14:50 | 15.64857 | -12.22371 | 34893 ft | 473 kts | 197° |
| 2026-04-29 14:50 | 15.58440 | -12.23892 | 34887 ft | 473 kts | 197° |
| 2026-04-29 14:51 | 15.52020 | -12.25414 | 34885 ft | 473 kts | 197° |
| 2026-04-29 14:51 | 15.45603 | -12.26934 | 34884 ft | 473 kts | 197° |
| 2026-04-29 14:52 | 15.39172 | -12.28457 | 34885 ft | 474 kts | 197° |
| 2026-04-29 14:52 | 15.32746 | -12.29975 | 34885 ft | 474 kts | 197° |
| 2026-04-29 14:53 | 15.26362 | -12.31482 | 34884 ft | 474 kts | 197° |
| 2026-04-29 14:53 | 15.19885 | -12.33011 | 34884 ft | 474 kts | 197° |
| 2026-04-29 14:54 | 15.13496 | -12.34517 | 34881 ft | 474 kts | 197° |
| 2026-04-29 14:54 | 15.07057 | -12.36035 | 34876 ft | 475 kts | 197° |
| 2026-04-29 14:55 | 15.00609 | -12.37553 | 34875 ft | 475 kts | 197° |
| 2026-04-29 14:55 | 14.94158 | -12.39071 | 34876 ft | 476 kts | 197° |
| 2026-04-29 14:56 | 14.87708 | -12.40587 | 34874 ft | 475 kts | 197° |
| 2026-04-29 14:56 | 14.84577 | -12.41607 | 34853 ft | 469 kts | 208° |
| 2026-04-29 14:56 | 14.81776 | -12.43296 | 34871 ft | 465 kts | 220° |
| 2026-04-29 14:56 | 14.79406 | -12.45543 | 34873 ft | 461 kts | 231° |
| 2026-04-29 14:57 | 14.77554 | -12.48230 | 34875 ft | 458 kts | 242° |
| 2026-04-29 14:57 | 14.76284 | -12.51243 | 34873 ft | 457 kts | 253° |
| 2026-04-29 14:57 | 14.75641 | -12.54455 | 34874 ft | 457 kts | 264° |
| 2026-04-29 14:58 | 14.75562 | -12.61038 | 34878 ft | 457 kts | 269° |
| 2026-04-29 14:58 | 14.75603 | -12.67621 | 34876 ft | 457 kts | 269° |
| 2026-04-29 14:59 | 14.75651 | -12.74199 | 34882 ft | 457 kts | 269° |
| 2026-04-29 14:59 | 14.75701 | -12.80773 | 34882 ft | 457 kts | 269° |
| 2026-04-29 15:00 | 14.75748 | -12.87342 | 34883 ft | 456 kts | 269° |
| 2026-04-29 15:00 | 14.75795 | -12.93911 | 34882 ft | 457 kts | 269° |
| 2026-04-29 15:01 | 14.75839 | -13.00479 | 34883 ft | 456 kts | 269° |
| 2026-04-29 15:01 | 14.75882 | -13.07049 | 34884 ft | 456 kts | 269° |
| 2026-04-29 15:02 | 14.75923 | -13.13617 | 34884 ft | 456 kts | 269° |
| 2026-04-29 15:02 | 14.75963 | -13.20196 | 34883 ft | 458 kts | 269° |
| 2026-04-29 15:03 | 14.75999 | -13.26790 | 34883 ft | 458 kts | 269° |
| 2026-04-29 15:03 | 14.76034 | -13.33384 | 34884 ft | 458 kts | 269° |
| 2026-04-29 15:04 | 14.76067 | -13.39978 | 34884 ft | 458 kts | 269° |
| 2026-04-29 15:04 | 14.76098 | -13.46578 | 34884 ft | 458 kts | 269° |
| 2026-04-29 15:05 | 14.76126 | -13.53176 | 34884 ft | 458 kts | 269° |
| 2026-04-29 15:05 | 14.76154 | -13.59775 | 34884 ft | 459 kts | 269° |
| 2026-04-29 15:06 | 14.76183 | -13.66373 | 34884 ft | 459 kts | 269° |
| 2026-04-29 15:06 | 14.76209 | -13.72972 | 34891 ft | 459 kts | 269° |
| 2026-04-29 15:07 | 14.76231 | -13.79570 | 34893 ft | 459 kts | 269° |
| 2026-04-29 15:07 | 14.76252 | -13.86171 | 34893 ft | 459 kts | 269° |
| 2026-04-29 15:08 | 14.76270 | -13.92768 | 34893 ft | 458 kts | 269° |
| 2026-04-29 15:08 | 14.76286 | -13.99364 | 34893 ft | 458 kts | 269° |
| 2026-04-29 15:09 | 14.76301 | -14.05964 | 34893 ft | 458 kts | 269° |
| 2026-04-29 15:09 | 14.76313 | -14.12561 | 34893 ft | 458 kts | 269° |
| 2026-04-29 15:10 | 14.76324 | -14.19150 | 34894 ft | 457 kts | 269° |
| 2026-04-29 15:10 | 14.76333 | -14.25730 | 34893 ft | 457 kts | 269° |
| 2026-04-29 15:11 | 14.76340 | -14.32312 | 34894 ft | 457 kts | 269° |
| 2026-04-29 15:11 | 14.76344 | -14.38846 | 34893 ft | 457 kts | 269° |
| 2026-04-29 15:12 | 14.76347 | -14.45426 | 34894 ft | 457 kts | 269° |
| 2026-04-29 15:12 | 14.76348 | -14.52007 | 34901 ft | 457 kts | 269° |
| 2026-04-29 15:13 | 14.76346 | -14.58583 | 34902 ft | 457 kts | 269° |
| 2026-04-29 15:13 | 14.76344 | -14.65160 | 34903 ft | 457 kts | 269° |
| 2026-04-29 15:14 | 14.76343 | -14.71736 | 34903 ft | 457 kts | 269° |
| 2026-04-29 15:14 | 14.76338 | -14.78314 | 34903 ft | 457 kts | 269° |
| 2026-04-29 15:15 | 14.76331 | -14.84884 | 34903 ft | 456 kts | 269° |
| 2026-04-29 15:15 | 14.76321 | -14.91445 | 34903 ft | 456 kts | 269° |
| 2026-04-29 15:16 | 14.76308 | -14.98003 | 34903 ft | 456 kts | 269° |
| 2026-04-29 15:16 | 14.76150 | -15.04533 | 34613 ft | 450 kts | 266° |
| 2026-04-29 15:16 | 14.75983 | -15.07774 | 33828 ft | 453 kts | 266° |
| 2026-04-29 15:17 | 14.75807 | -15.11050 | 32905 ft | 459 kts | 266° |
| 2026-04-29 15:17 | 14.75628 | -15.14360 | 32012 ft | 463 kts | 266° |
| 2026-04-29 15:17 | 14.75448 | -15.17701 | 31096 ft | 467 kts | 266° |
| 2026-04-29 15:17 | 14.75327 | -15.19933 | 30473 ft | 471 kts | 266° |
| 2026-04-29 15:18 | 14.75081 | -15.24477 | 29288 ft | 475 kts | 266° |
| 2026-04-29 15:18 | 14.74896 | -15.27899 | 28438 ft | 477 kts | 266° |
| 2026-04-29 15:18 | 14.74710 | -15.31327 | 27682 ft | 476 kts | 266° |
| 2026-04-29 15:18 | 14.74524 | -15.34730 | 27149 ft | 471 kts | 266° |
| 2026-04-29 15:19 | 14.74341 | -15.38094 | 26567 ft | 467 kts | 266° |
| 2026-04-29 15:19 | 14.74157 | -15.41432 | 26015 ft | 462 kts | 266° |
| 2026-04-29 15:19 | 14.73976 | -15.44731 | 25461 ft | 458 kts | 266° |
| 2026-04-29 15:19 | 14.73795 | -15.48005 | 24932 ft | 453 kts | 266° |
| 2026-04-29 15:20 | 14.73616 | -15.51243 | 24437 ft | 448 kts | 266° |
| 2026-04-29 15:20 | 14.73438 | -15.54443 | 23971 ft | 443 kts | 266° |
| 2026-04-29 15:20 | 14.73262 | -15.57609 | 23512 ft | 438 kts | 266° |
| 2026-04-29 15:20 | 14.73088 | -15.60733 | 23078 ft | 433 kts | 266° |
| 2026-04-29 15:21 | 14.72915 | -15.63826 | 22640 ft | 428 kts | 266° |
| 2026-04-29 15:21 | 14.72744 | -15.66884 | 22196 ft | 424 kts | 266° |
| 2026-04-29 15:21 | 14.72574 | -15.69910 | 21757 ft | 420 kts | 266° |
| 2026-04-29 15:21 | 14.72404 | -15.72914 | 21323 ft | 416 kts | 266° |
| 2026-04-29 15:22 | 14.72236 | -15.75886 | 20897 ft | 412 kts | 266° |
| 2026-04-29 15:22 | 14.72070 | -15.78831 | 20468 ft | 409 kts | 266° |
| 2026-04-29 15:22 | 14.71904 | -15.81754 | 20037 ft | 406 kts | 266° |
| 2026-04-29 15:22 | 14.71739 | -15.84655 | 19615 ft | 402 kts | 266° |
| 2026-04-29 15:23 | 14.71575 | -15.87534 | 19183 ft | 399 kts | 266° |
| 2026-04-29 15:23 | 14.71412 | -15.90393 | 18754 ft | 397 kts | 266° |
| 2026-04-29 15:23 | 14.71250 | -15.93236 | 18328 ft | 394 kts | 266° |
| 2026-04-29 15:23 | 14.71089 | -15.96056 | 17909 ft | 392 kts | 266° |
| 2026-04-29 15:24 | 14.70928 | -15.98858 | 17495 ft | 389 kts | 266° |
| 2026-04-29 15:24 | 14.70768 | -16.01644 | 17087 ft | 387 kts | 266° |
| 2026-04-29 15:24 | 14.70609 | -16.04413 | 16686 ft | 384 kts | 266° |
| 2026-04-29 15:24 | 14.70452 | -16.07127 | 16284 ft | 382 kts | 266° |
| 2026-04-29 15:25 | 14.70292 | -16.09896 | 15865 ft | 380 kts | 266° |
| 2026-04-29 15:25 | 14.70136 | -16.12581 | 15472 ft | 378 kts | 266° |
| 2026-04-29 15:25 | 14.69979 | -16.15286 | 15069 ft | 376 kts | 266° |
| 2026-04-29 15:25 | 14.69822 | -16.17977 | 14672 ft | 374 kts | 266° |
| 2026-04-29 15:26 | 14.69666 | -16.20651 | 14279 ft | 371 kts | 266° |
| 2026-04-29 15:26 | 14.69511 | -16.23309 | 13873 ft | 369 kts | 266° |
| 2026-04-29 15:26 | 14.69356 | -16.25954 | 13477 ft | 367 kts | 266° |
| 2026-04-29 15:26 | 14.69202 | -16.28582 | 13077 ft | 365 kts | 266° |
| 2026-04-29 15:27 | 14.69098 | -16.30350 | 12808 ft | 363 kts | 266° |
| 2026-04-29 15:27 | 14.68945 | -16.32952 | 12409 ft | 361 kts | 265° |
| 2026-04-29 15:27 | 14.68792 | -16.35537 | 12017 ft | 359 kts | 265° |
| 2026-04-29 15:27 | 14.68641 | -16.38106 | 11625 ft | 357 kts | 265° |
| 2026-04-29 15:28 | 14.68491 | -16.40624 | 11239 ft | 355 kts | 265° |
| 2026-04-29 15:28 | 14.68337 | -16.43197 | 10837 ft | 353 kts | 265° |
| 2026-04-29 15:28 | 14.68186 | -16.45715 | 10562 ft | 346 kts | 266° |
| 2026-04-29 15:28 | 14.68044 | -16.48113 | 10494 ft | 332 kts | 266° |
| 2026-04-29 15:29 | 14.67905 | -16.50448 | 10398 ft | 319 kts | 266° |
| 2026-04-29 15:29 | 14.67642 | -16.54852 | 10205 ft | 295 kts | 265° |
| 2026-04-29 15:30 | 14.67396 | -16.58935 | 10047 ft | 277 kts | 265° |
| 2026-04-29 15:30 | 14.67277 | -16.60912 | 9971 ft | 277 kts | 265° |
| 2026-04-29 15:30 | 14.67152 | -16.62961 | 9977 ft | 290 kts | 265° |
| 2026-04-29 15:30 | 14.67025 | -16.65055 | 9976 ft | 292 kts | 265° |
| 2026-04-29 15:31 | 14.66900 | -16.67155 | 9969 ft | 293 kts | 267° |
| 2026-04-29 15:31 | 14.66768 | -16.69256 | 9955 ft | 292 kts | 256° |
| 2026-04-29 15:31 | 14.65918 | -16.71140 | 9961 ft | 292 kts | 230° |
| 2026-04-29 15:31 | 14.64488 | -16.72629 | 9982 ft | 292 kts | 224° |
| 2026-04-29 15:32 | 14.63027 | -16.74085 | 9977 ft | 292 kts | 224° |
| 2026-04-29 15:32 | 14.61569 | -16.75546 | 9974 ft | 292 kts | 224° |
| 2026-04-29 15:32 | 14.60111 | -16.77008 | 9976 ft | 292 kts | 224° |
| 2026-04-29 15:32 | 14.58653 | -16.78468 | 9976 ft | 292 kts | 224° |
| 2026-04-29 15:33 | 14.57194 | -16.79929 | 9980 ft | 292 kts | 224° |
| 2026-04-29 15:33 | 14.55736 | -16.81389 | 9983 ft | 292 kts | 224° |
| 2026-04-29 15:33 | 14.54277 | -16.82849 | 9982 ft | 292 kts | 224° |
| 2026-04-29 15:33 | 14.52820 | -16.84308 | 9982 ft | 292 kts | 224° |
| 2026-04-29 15:34 | 14.51361 | -16.85769 | 9981 ft | 292 kts | 224° |
| 2026-04-29 15:34 | 14.49906 | -16.87226 | 9911 ft | 292 kts | 224° |
| 2026-04-29 15:34 | 14.48333 | -16.88563 | 9414 ft | 295 kts | 211° |
| 2026-04-29 15:34 | 14.46496 | -16.89536 | 8913 ft | 298 kts | 205° |
| 2026-04-29 15:35 | 14.44596 | -16.90426 | 8409 ft | 301 kts | 204° |
| 2026-04-29 15:35 | 14.42668 | -16.91308 | 7914 ft | 304 kts | 204° |
| 2026-04-29 15:35 | 14.40722 | -16.92193 | 7400 ft | 307 kts | 204° |
| 2026-04-29 15:35 | 14.38703 | -16.92943 | 6836 ft | 309 kts | 193° |
| 2026-04-29 15:36 | 14.36606 | -16.93369 | 6321 ft | 304 kts | 190° |
| 2026-04-29 15:36 | 14.34534 | -16.93712 | 5812 ft | 300 kts | 189° |
| 2026-04-29 15:36 | 14.32489 | -16.94060 | 5297 ft | 295 kts | 195° |
| 2026-04-29 15:36 | 14.30735 | -16.95005 | 4728 ft | 287 kts | 227° |
| 2026-04-29 15:37 | 14.29715 | -16.96730 | 4346 ft | 273 kts | 254° |
| 2026-04-29 15:37 | 14.29458 | -16.98617 | 4130 ft | 262 kts | 275° |
| 2026-04-29 15:37 | 14.29862 | -17.00414 | 3882 ft | 255 kts | 296° |
| 2026-04-29 15:37 | 14.30804 | -17.01899 | 3627 ft | 249 kts | 311° |
| 2026-04-29 15:38 | 14.31987 | -17.03212 | 3379 ft | 244 kts | 317° |
| 2026-04-29 15:38 | 14.33268 | -17.04339 | 3127 ft | 240 kts | 324° |
| 2026-04-29 15:38 | 14.34624 | -17.05259 | 2988 ft | 231 kts | 331° |
| 2026-04-29 15:38 | 14.36048 | -17.05981 | 2976 ft | 220 kts | 338° |
| 2026-04-29 15:39 | 14.37454 | -17.06542 | 2979 ft | 220 kts | 342° |
| 2026-04-29 15:39 | 14.38938 | -17.06903 | 2983 ft | 219 kts | 352° |
| 2026-04-29 15:39 | 14.40417 | -17.07029 | 2974 ft | 210 kts | 358° |
| 2026-04-29 15:39 | 14.41874 | -17.07057 | 2985 ft | 209 kts | 359° |
| 2026-04-29 15:40 | 14.43330 | -17.07065 | 2990 ft | 209 kts | 359° |
| 2026-04-29 15:40 | 14.44786 | -17.07072 | 2991 ft | 209 kts | 359° |
| 2026-04-29 15:40 | 14.46240 | -17.07083 | 2991 ft | 209 kts | 359° |
| 2026-04-29 15:40 | 14.47678 | -17.07095 | 2950 ft | 201 kts | 359° |
| 2026-04-29 15:41 | 14.49021 | -17.07107 | 2985 ft | 189 kts | 359° |
| 2026-04-29 15:41 | 14.50334 | -17.07120 | 3032 ft | 188 kts | 359° |
| 2026-04-29 15:41 | 14.51645 | -17.07133 | 2975 ft | 189 kts | 359° |
| 2026-04-29 15:41 | 14.52976 | -17.07146 | 2734 ft | 193 kts | 359° |
| 2026-04-29 15:42 | 14.54314 | -17.07159 | 2473 ft | 192 kts | 359° |
| 2026-04-29 15:42 | 14.55610 | -17.07171 | 2200 ft | 180 kts | 359° |
| 2026-04-29 15:42 | 14.56819 | -17.07182 | 1961 ft | 168 kts | 359° |
| 2026-04-29 15:42 | 14.57946 | -17.07193 | 1730 ft | 158 kts | 359° |
| 2026-04-29 15:43 | 14.59044 | -17.07205 | 1539 ft | 157 kts | 359° |
| 2026-04-29 15:43 | 14.60133 | -17.07215 | 1352 ft | 156 kts | 359° |
| 2026-04-29 15:43 | 14.61214 | -17.07225 | 1149 ft | 155 kts | 359° |
| 2026-04-29 15:43 | 14.62296 | -17.07236 | 946 ft | 156 kts | 359° |
| 2026-04-29 15:44 | 14.63378 | -17.07245 | 729 ft | 156 kts | 0° |
| 2026-04-29 15:44 | 14.64459 | -17.07255 | 534 ft | 155 kts | 0° |
| 2026-04-29 15:44 | 14.65543 | -17.07263 | 314 ft | 156 kts | 1° |
| 2026-04-29 15:44 | 14.66573 | -17.07274 | 275 ft | 127 kts | 359° |
| 2026-04-29 15:45 | 14.67236 | -17.07281 | 275 ft | 63 kts | 359° |
| 2026-04-29 15:45 | 14.67582 | -17.07277 | 271 ft | 43 kts | 8° |
| 2026-04-29 15:45 | 14.67798 | -17.07195 | 272 ft | 19 kts | 31° |
| 2026-04-29 15:45 | 14.67813 | -17.07108 | 273 ft | 13 kts | 159° |
| 2026-04-29 15:46 | 14.67725 | -17.07095 | 275 ft | 13 kts | 181° |
| 2026-04-29 15:46 | 14.67637 | -17.07096 | 275 ft | 3 kts | 180° |
| 2026-04-29 15:46 | 14.67636 | -17.07096 | 275 ft | 0 kts | 180° |
| 2026-04-29 15:50 | 14.67635 | -17.07096 | 275 ft | 2 kts | 180° |
| 2026-04-29 15:50 | 14.67525 | -17.07095 | 274 ft | 24 kts | 179° |
| 2026-04-29 15:50 | 14.67350 | -17.07094 | 274 ft | 26 kts | 179° |
| 2026-04-29 15:51 | 14.67173 | -17.07092 | 276 ft | 18 kts | 179° |
| 2026-04-29 15:51 | 14.67087 | -17.07064 | 276 ft | 11 kts | 117° |
| 2026-04-29 15:51 | 14.67072 | -17.07005 | 280 ft | 8 kts | 119° |
| 2026-04-29 15:51 | 14.67023 | -17.06978 | 280 ft | 6 kts | 171° |
| 2026-04-29 15:52 | 14.67010 | -17.06976 | 280 ft | 1 kts | 176° |
| 2026-04-29 15:52 | 14.67007 | -17.06976 | 280 ft | 0 kts | 176° |
| 2026-04-29 15:52 | 14.67004 | -17.06976 | 280 ft | 1 kts | 178° |
| 2026-04-29 15:52 | 14.66993 | -17.06976 | 280 ft | 0 kts | 179° |
| 2026-04-29 15:54 | 14.66957 | -17.06976 | 280 ft | 14 kts | 179° |
| 2026-04-29 15:54 | 14.66900 | -17.06976 | 280 ft | 9 kts | 182° |
| 2026-04-29 15:55 | 14.66874 | -17.06940 | 280 ft | 7 kts | 102° |
| 2026-04-29 15:55 | 14.66869 | -17.06895 | 280 ft | 7 kts | 92° |
| 2026-04-29 15:55 | 14.66869 | -17.06871 | 280 ft | 0 kts | 90° |